Sect Las Animas, Puerto Rico
Current Conditions -  °F | °C
As of 8:50 AM on Friday 28 Nov 2014 (Local Time) from TJBQ Reporting Station
Clear Clear  
Wind Chill: 79°   Ceiling: Unl
Heat Index: 81°   Visibility: 10mi
Dew Point: 68°   Wind: 6mph
Humidity: 69%   Direction: 110°ESE
Pressure: 30"   Gusts: NA
Location:  18.4739°N, 66.7295°W
Report Text: TJBQ 281250Z 11005KT 10SM SKC 26/20 A3000 RMK RWY 08- ATIS R
Loading
Personal Weather Stations






























Interactive Weather Map New forecast layout! Learn more

10-Day Weather Forecast

Advertisements
Track Severe Weather on mobile